sensor_id;sensor_type;location;lat;lon;timestamp;temperature;humidity
80540;DHT22;69869;48.036;15.780;2023-05-16T00:02:15;20.30;52.50
80540;DHT22;69869;48.036;15.780;2023-05-16T00:04:41;20.40;52.60
80540;DHT22;69869;48.036;15.780;2023-05-16T00:07:07;20.40;52.60
80540;DHT22;69869;48.036;15.780;2023-05-16T00:09:32;20.40;52.60
80540;DHT22;69869;48.036;15.780;2023-05-16T00:11:58;20.40;52.60
80540;DHT22;69869;48.036;15.780;2023-05-16T00:14:24;20.30;52.50
80540;DHT22;69869;48.036;15.780;2023-05-16T00:16:54;20.30;52.50
80540;DHT22;69869;48.036;15.780;2023-05-16T00:19:22;20.30;52.50
80540;DHT22;69869;48.036;15.780;2023-05-16T00:21:48;20.30;52.50
80540;DHT22;69869;48.036;15.780;2023-05-16T00:24:14;20.30;52.50
80540;DHT22;69869;48.036;15.780;2023-05-16T00:26:40;20.30;53.10
80540;DHT22;69869;48.036;15.780;2023-05-16T00:29:05;20.30;52.50
80540;DHT22;69869;48.036;15.780;2023-05-16T00:31:31;20.30;52.60
80540;DHT22;69869;48.036;15.780;2023-05-16T00:33:57;20.30;52.50
80540;DHT22;69869;48.036;15.780;2023-05-16T00:36:23;20.30;52.50
80540;DHT22;69869;48.036;15.780;2023-05-16T00:38:48;20.30;52.50
80540;DHT22;69869;48.036;15.780;2023-05-16T00:41:15;20.30;52.60
80540;DHT22;69869;48.036;15.780;2023-05-16T00:43:41;20.30;52.60
80540;DHT22;69869;48.036;15.780;2023-05-16T00:46:07;20.30;52.60
80540;DHT22;69869;48.036;15.780;2023-05-16T00:48:33;20.30;52.60
80540;DHT22;69869;48.036;15.780;2023-05-16T00:51:00;20.30;52.60
80540;DHT22;69869;48.036;15.780;2023-05-16T00:53:26;20.30;52.60
80540;DHT22;69869;48.036;15.780;2023-05-16T00:55:52;20.30;52.60
80540;DHT22;69869;48.036;15.780;2023-05-16T00:58:18;20.30;52.60
80540;DHT22;69869;48.036;15.780;2023-05-16T01:00:46;20.30;52.60
80540;DHT22;69869;48.036;15.780;2023-05-16T01:03:12;20.30;52.70
80540;DHT22;69869;48.036;15.780;2023-05-16T01:05:37;20.30;52.60
80540;DHT22;69869;48.036;15.780;2023-05-16T01:08:03;20.30;52.60
80540;DHT22;69869;48.036;15.780;2023-05-16T01:14:36;20.30;52.60
80540;DHT22;69869;48.036;15.780;2023-05-16T01:16:47;20.30;52.70
80540;DHT22;69869;48.036;15.780;2023-05-16T01:21:52;20.30;52.70
80540;DHT22;69869;48.036;15.780;2023-05-16T01:24:34;20.30;52.70
80540;DHT22;69869;48.036;15.780;2023-05-16T01:27:05;20.30;52.70
80540;DHT22;69869;48.036;15.780;2023-05-16T01:29:32;20.30;52.70
80540;DHT22;69869;48.036;15.780;2023-05-16T01:31:58;20.30;52.70
80540;DHT22;69869;48.036;15.780;2023-05-16T01:34:24;20.30;52.90
80540;DHT22;69869;48.036;15.780;2023-05-16T01:37:04;20.20;52.90
80540;DHT22;69869;48.036;15.780;2023-05-16T01:39:44;20.20;52.90
80540;DHT22;69869;48.036;15.780;2023-05-16T01:42:13;20.10;52.80
80540;DHT22;69869;48.036;15.780;2023-05-16T01:47:19;20.10;53.00
80540;DHT22;69869;48.036;15.780;2023-05-16T01:49:49;20.10;53.00
80540;DHT22;69869;48.036;15.780;2023-05-16T01:52:21;20.10;53.00
80540;DHT22;69869;48.036;15.780;2023-05-16T01:54:52;20.10;53.00
80540;DHT22;69869;48.036;15.780;2023-05-16T01:57:24;20.10;53.00
80540;DHT22;69869;48.036;15.780;2023-05-16T01:59:50;20.10;53.00
80540;DHT22;69869;48.036;15.780;2023-05-16T02:02:17;20.10;53.00
80540;DHT22;69869;48.036;15.780;2023-05-16T02:04:43;20.10;53.10
80540;DHT22;69869;48.036;15.780;2023-05-16T02:07:09;20.10;53.00
80540;DHT22;69869;48.036;15.780;2023-05-16T02:09:35;20.10;53.00
80540;DHT22;69869;48.036;15.780;2023-05-16T02:12:01;20.10;53.00
80540;DHT22;69869;48.036;15.780;2023-05-16T02:14:27;20.10;53.10
80540;DHT22;69869;48.036;15.780;2023-05-16T02:16:53;20.10;53.10
80540;DHT22;69869;48.036;15.780;2023-05-16T02:19:19;20.10;53.10
80540;DHT22;69869;48.036;15.780;2023-05-16T02:21:45;20.10;53.10
80540;DHT22;69869;48.036;15.780;2023-05-16T02:24:10;20.10;53.10
80540;DHT22;69869;48.036;15.780;2023-05-16T02:26:36;20.10;53.10
80540;DHT22;69869;48.036;15.780;2023-05-16T02:29:02;20.10;53.10
80540;DHT22;69869;48.036;15.780;2023-05-16T02:31:29;20.10;53.10
80540;DHT22;69869;48.036;15.780;2023-05-16T02:33:56;20.10;53.10
80540;DHT22;69869;48.036;15.780;2023-05-16T02:36:23;20.10;53.20
80540;DHT22;69869;48.036;15.780;2023-05-16T02:38:49;20.10;53.10
80540;DHT22;69869;48.036;15.780;2023-05-16T02:41:15;20.10;53.10
80540;DHT22;69869;48.036;15.780;2023-05-16T02:43:41;20.10;53.10
80540;DHT22;69869;48.036;15.780;2023-05-16T02:46:31;20.10;53.10
80540;DHT22;69869;48.036;15.780;2023-05-16T02:48:57;20.10;53.10
80540;DHT22;69869;48.036;15.780;2023-05-16T02:51:25;20.10;53.20
80540;DHT22;69869;48.036;15.780;2023-05-16T02:53:51;20.10;53.10
80540;DHT22;69869;48.036;15.780;2023-05-16T02:56:18;20.10;53.10
80540;DHT22;69869;48.036;15.780;2023-05-16T02:58:47;20.10;53.20
80540;DHT22;69869;48.036;15.780;2023-05-16T03:01:13;20.10;53.80
80540;DHT22;69869;48.036;15.780;2023-05-16T03:03:40;20.10;53.20
80540;DHT22;69869;48.036;15.780;2023-05-16T03:06:06;20.10;53.20
80540;DHT22;69869;48.036;15.780;2023-05-16T03:08:32;20.10;53.20
80540;DHT22;69869;48.036;15.780;2023-05-16T03:10:57;20.10;53.20
80540;DHT22;69869;48.036;15.780;2023-05-16T03:13:23;20.10;53.20
80540;DHT22;69869;48.036;15.780;2023-05-16T03:15:50;20.10;53.20
80540;DHT22;69869;48.036;15.780;2023-05-16T03:18:16;20.10;53.20
80540;DHT22;69869;48.036;15.780;2023-05-16T03:20:41;20.10;53.20
80540;DHT22;69869;48.036;15.780;2023-05-16T03:23:07;20.10;53.20
80540;DHT22;69869;48.036;15.780;2023-05-16T03:25:36;20.10;53.20
80540;DHT22;69869;48.036;15.780;2023-05-16T03:28:03;20.10;53.20
80540;DHT22;69869;48.036;15.780;2023-05-16T03:30:29;20.10;53.20
80540;DHT22;69869;48.036;15.780;2023-05-16T03:32:55;20.10;53.20
80540;DHT22;69869;48.036;15.780;2023-05-16T03:35:21;20.10;53.20
80540;DHT22;69869;48.036;15.780;2023-05-16T03:37:47;20.00;53.10
80540;DHT22;69869;48.036;15.780;2023-05-16T03:40:13;20.10;53.20
80540;DHT22;69869;48.036;15.780;2023-05-16T03:42:39;20.00;53.20
80540;DHT22;69869;48.036;15.780;2023-05-16T03:45:05;20.00;53.10
80540;DHT22;69869;48.036;15.780;2023-05-16T03:47:31;20.00;53.20
80540;DHT22;69869;48.036;15.780;2023-05-16T03:49:57;20.10;53.30
80540;DHT22;69869;48.036;15.780;2023-05-16T03:52:22;20.00;53.20
80540;DHT22;69869;48.036;15.780;2023-05-16T03:54:48;20.00;53.20
80540;DHT22;69869;48.036;15.780;2023-05-16T03:57:14;20.10;53.30
80540;DHT22;69869;48.036;15.780;2023-05-16T03:59:40;20.00;53.20
80540;DHT22;69869;48.036;15.780;2023-05-16T04:02:06;20.10;53.30
80540;DHT22;69869;48.036;15.780;2023-05-16T04:04:32;20.00;53.30
80540;DHT22;69869;48.036;15.780;2023-05-16T04:06:58;20.10;53.30
80540;DHT22;69869;48.036;15.780;2023-05-16T04:09:23;20.10;53.30
80540;DHT22;69869;48.036;15.780;2023-05-16T04:11:49;20.00;53.20
80540;DHT22;69869;48.036;15.780;2023-05-16T04:14:15;20.00;53.30
80540;DHT22;69869;48.036;15.780;2023-05-16T04:16:41;20.00;53.30
80540;DHT22;69869;48.036;15.780;2023-05-16T04:19:06;20.00;53.20
80540;DHT22;69869;48.036;15.780;2023-05-16T04:21:32;20.00;53.30
80540;DHT22;69869;48.036;15.780;2023-05-16T04:23:58;20.00;53.30
80540;DHT22;69869;48.036;15.780;2023-05-16T04:26:24;20.00;53.30
80540;DHT22;69869;48.036;15.780;2023-05-16T04:28:50;20.00;53.30
80540;DHT22;69869;48.036;15.780;2023-05-16T04:31:16;20.00;53.20
80540;DHT22;69869;48.036;15.780;2023-05-16T04:33:42;20.00;53.30
80540;DHT22;69869;48.036;15.780;2023-05-16T04:36:07;20.00;53.30
80540;DHT22;69869;48.036;15.780;2023-05-16T04:38:33;20.00;53.30
80540;DHT22;69869;48.036;15.780;2023-05-16T04:40:59;20.00;53.30
80540;DHT22;69869;48.036;15.780;2023-05-16T04:43:26;20.00;53.30
80540;DHT22;69869;48.036;15.780;2023-05-16T04:45:52;20.00;53.30
80540;DHT22;69869;48.036;15.780;2023-05-16T04:48:20;20.00;53.30
80540;DHT22;69869;48.036;15.780;2023-05-16T04:50:45;20.00;53.30
80540;DHT22;69869;48.036;15.780;2023-05-16T04:53:11;20.00;53.30
80540;DHT22;69869;48.036;15.780;2023-05-16T04:55:39;20.00;53.30
80540;DHT22;69869;48.036;15.780;2023-05-16T04:58:05;20.00;53.30
80540;DHT22;69869;48.036;15.780;2023-05-16T05:00:31;20.00;53.30
80540;DHT22;69869;48.036;15.780;2023-05-16T05:02:56;20.00;53.30
80540;DHT22;69869;48.036;15.780;2023-05-16T05:05:22;20.00;53.30
80540;DHT22;69869;48.036;15.780;2023-05-16T05:07:48;20.00;53.40
80540;DHT22;69869;48.036;15.780;2023-05-16T05:10:14;20.00;53.30
80540;DHT22;69869;48.036;15.780;2023-05-16T05:12:39;20.00;53.30
80540;DHT22;69869;48.036;15.780;2023-05-16T05:15:06;20.00;53.40
80540;DHT22;69869;48.036;15.780;2023-05-16T05:17:32;20.00;53.40
80540;DHT22;69869;48.036;15.780;2023-05-16T05:19:57;20.00;53.40
80540;DHT22;69869;48.036;15.780;2023-05-16T05:22:23;19.90;53.30
80540;DHT22;69869;48.036;15.780;2023-05-16T05:24:49;20.00;53.40
80540;DHT22;69869;48.036;15.780;2023-05-16T05:27:14;20.00;53.40
80540;DHT22;69869;48.036;15.780;2023-05-16T05:29:40;20.00;53.40
80540;DHT22;69869;48.036;15.780;2023-05-16T05:32:06;20.00;53.40
80540;DHT22;69869;48.036;15.780;2023-05-16T05:34:32;20.00;53.60
80540;DHT22;69869;48.036;15.780;2023-05-16T05:36:58;20.00;53.40
80540;DHT22;69869;48.036;15.780;2023-05-16T05:39:24;20.00;53.40
80540;DHT22;69869;48.036;15.780;2023-05-16T05:41:51;20.00;53.50
80540;DHT22;69869;48.036;15.780;2023-05-16T05:44:16;20.00;53.50
80540;DHT22;69869;48.036;15.780;2023-05-16T05:46:42;20.00;53.40
80540;DHT22;69869;48.036;15.780;2023-05-16T05:49:08;19.90;53.40
80540;DHT22;69869;48.036;15.780;2023-05-16T05:51:34;20.00;53.50
80540;DHT22;69869;48.036;15.780;2023-05-16T05:54:01;20.00;53.50
80540;DHT22;69869;48.036;15.780;2023-05-16T05:56:26;20.00;53.50
80540;DHT22;69869;48.036;15.780;2023-05-16T05:58:52;19.90;53.40
80540;DHT22;69869;48.036;15.780;2023-05-16T06:01:18;20.00;53.50
80540;DHT22;69869;48.036;15.780;2023-05-16T06:03:46;20.00;53.50
80540;DHT22;69869;48.036;15.780;2023-05-16T06:06:11;20.00;53.50
80540;DHT22;69869;48.036;15.780;2023-05-16T06:08:39;19.90;53.40
80540;DHT22;69869;48.036;15.780;2023-05-16T06:11:05;20.00;53.50
80540;DHT22;69869;48.036;15.780;2023-05-16T06:13:31;19.90;53.40
80540;DHT22;69869;48.036;15.780;2023-05-16T06:15:56;20.00;53.50
80540;DHT22;69869;48.036;15.780;2023-05-16T06:18:22;19.90;53.40
80540;DHT22;69869;48.036;15.780;2023-05-16T06:20:48;19.90;53.40
80540;DHT22;69869;48.036;15.780;2023-05-16T06:23:15;19.90;53.40
80540;DHT22;69869;48.036;15.780;2023-05-16T06:25:41;19.90;53.40
80540;DHT22;69869;48.036;15.780;2023-05-16T06:28:06;19.90;53.40
80540;DHT22;69869;48.036;15.780;2023-05-16T06:30:32;19.90;53.40
80540;DHT22;69869;48.036;15.780;2023-05-16T06:32:59;19.90;53.40
80540;DHT22;69869;48.036;15.780;2023-05-16T06:35:25;19.90;53.50
80540;DHT22;69869;48.036;15.780;2023-05-16T06:37:50;19.90;53.40
80540;DHT22;69869;48.036;15.780;2023-05-16T06:40:16;19.90;53.50
80540;DHT22;69869;48.036;15.780;2023-05-16T06:42:42;19.90;53.50
80540;DHT22;69869;48.036;15.780;2023-05-16T06:45:08;19.90;53.50
80540;DHT22;69869;48.036;15.780;2023-05-16T06:47:35;19.90;53.50
80540;DHT22;69869;48.036;15.780;2023-05-16T06:50:01;19.90;53.50
80540;DHT22;69869;48.036;15.780;2023-05-16T06:52:26;19.90;53.50
80540;DHT22;69869;48.036;15.780;2023-05-16T06:54:52;19.90;53.50
80540;DHT22;69869;48.036;15.780;2023-05-16T06:57:18;19.90;53.50
80540;DHT22;69869;48.036;15.780;2023-05-16T06:59:44;19.90;53.50
80540;DHT22;69869;48.036;15.780;2023-05-16T07:02:10;19.90;54.00
80540;DHT22;69869;48.036;15.780;2023-05-16T07:04:35;19.90;53.50
80540;DHT22;69869;48.036;15.780;2023-05-16T07:07:03;19.90;53.50
80540;DHT22;69869;48.036;15.780;2023-05-16T07:09:29;19.90;53.50
80540;DHT22;69869;48.036;15.780;2023-05-16T07:11:55;19.90;53.50
80540;DHT22;69869;48.036;15.780;2023-05-16T07:14:21;19.90;53.50
80540;DHT22;69869;48.036;15.780;2023-05-16T07:16:47;19.90;53.50
80540;DHT22;69869;48.036;15.780;2023-05-16T07:19:12;19.90;53.50
80540;DHT22;69869;48.036;15.780;2023-05-16T07:21:38;19.90;53.50
80540;DHT22;69869;48.036;15.780;2023-05-16T07:24:04;19.90;53.60
80540;DHT22;69869;48.036;15.780;2023-05-16T07:26:30;19.90;53.60
80540;DHT22;69869;48.036;15.780;2023-05-16T07:28:56;19.90;53.60
80540;DHT22;69869;48.036;15.780;2023-05-16T07:31:22;19.90;53.60
80540;DHT22;69869;48.036;15.780;2023-05-16T07:33:48;19.90;53.60
80540;DHT22;69869;48.036;15.780;2023-05-16T07:36:14;19.90;53.60
80540;DHT22;69869;48.036;15.780;2023-05-16T07:38:41;19.90;53.60
80540;DHT22;69869;48.036;15.780;2023-05-16T07:41:06;19.90;53.60
80540;DHT22;69869;48.036;15.780;2023-05-16T07:43:32;19.90;53.60
80540;DHT22;69869;48.036;15.780;2023-05-16T07:46:00;19.90;53.60
80540;DHT22;69869;48.036;15.780;2023-05-16T07:48:26;19.90;53.60
80540;DHT22;69869;48.036;15.780;2023-05-16T07:50:52;19.90;53.60
80540;DHT22;69869;48.036;15.780;2023-05-16T07:53:19;19.90;53.60
80540;DHT22;69869;48.036;15.780;2023-05-16T07:55:45;19.80;53.60
80540;DHT22;69869;48.036;15.780;2023-05-16T07:58:10;19.80;53.50
80540;DHT22;69869;48.036;15.780;2023-05-16T08:00:36;19.90;53.60
80540;DHT22;69869;48.036;15.780;2023-05-16T08:03:02;19.80;53.60
80540;DHT22;69869;48.036;15.780;2023-05-16T08:05:28;19.90;53.60
80540;DHT22;69869;48.036;15.780;2023-05-16T08:07:53;19.80;53.60
80540;DHT22;69869;48.036;15.780;2023-05-16T08:10:20;19.80;53.60
80540;DHT22;69869;48.036;15.780;2023-05-16T08:12:47;19.80;53.60
80540;DHT22;69869;48.036;15.780;2023-05-16T08:15:13;19.90;53.70
80540;DHT22;69869;48.036;15.780;2023-05-16T08:17:39;19.90;53.70
80540;DHT22;69869;48.036;15.780;2023-05-16T08:20:05;19.80;53.60
80540;DHT22;69869;48.036;15.780;2023-05-16T08:22:31;19.80;53.60
80540;DHT22;69869;48.036;15.780;2023-05-16T08:24:58;19.80;53.60
80540;DHT22;69869;48.036;15.780;2023-05-16T08:27:25;19.80;53.60
80540;DHT22;69869;48.036;15.780;2023-05-16T08:29:51;19.80;53.70
80540;DHT22;69869;48.036;15.780;2023-05-16T08:32:17;19.80;53.60
80540;DHT22;69869;48.036;15.780;2023-05-16T08:34:42;19.80;53.70
80540;DHT22;69869;48.036;15.780;2023-05-16T08:37:08;19.80;53.70
80540;DHT22;69869;48.036;15.780;2023-05-16T08:39:35;19.80;53.70
80540;DHT22;69869;48.036;15.780;2023-05-16T08:42:03;19.80;53.70
80540;DHT22;69869;48.036;15.780;2023-05-16T08:44:29;19.80;53.70
80540;DHT22;69869;48.036;15.780;2023-05-16T08:46:56;19.80;53.70
80540;DHT22;69869;48.036;15.780;2023-05-16T08:49:22;19.80;53.70
80540;DHT22;69869;48.036;15.780;2023-05-16T08:51:56;19.80;53.70
80540;DHT22;69869;48.036;15.780;2023-05-16T08:54:22;19.80;53.70
80540;DHT22;69869;48.036;15.780;2023-05-16T08:56:48;19.80;53.70
80540;DHT22;69869;48.036;15.780;2023-05-16T08:59:15;19.80;53.70
80540;DHT22;69869;48.036;15.780;2023-05-16T09:01:41;19.80;53.70
80540;DHT22;69869;48.036;15.780;2023-05-16T09:04:07;19.80;53.70
80540;DHT22;69869;48.036;15.780;2023-05-16T09:06:35;19.80;53.70
80540;DHT22;69869;48.036;15.780;2023-05-16T09:09:00;19.80;53.70
80540;DHT22;69869;48.036;15.780;2023-05-16T09:11:27;19.80;53.70
80540;DHT22;69869;48.036;15.780;2023-05-16T09:13:53;19.80;53.70
80540;DHT22;69869;48.036;15.780;2023-05-16T09:16:19;19.80;53.70
80540;DHT22;69869;48.036;15.780;2023-05-16T09:18:53;19.80;53.70
80540;DHT22;69869;48.036;15.780;2023-05-16T09:21:21;19.80;53.80
80540;DHT22;69869;48.036;15.780;2023-05-16T09:23:48;19.80;53.80
80540;DHT22;69869;48.036;15.780;2023-05-16T09:26:14;19.80;53.80
80540;DHT22;69869;48.036;15.780;2023-05-16T09:28:43;19.80;53.80
80540;DHT22;69869;48.036;15.780;2023-05-16T09:31:26;19.80;53.80
80540;DHT22;69869;48.036;15.780;2023-05-16T09:33:57;19.80;53.80
80540;DHT22;69869;48.036;15.780;2023-05-16T09:36:24;19.70;53.80
80540;DHT22;69869;48.036;15.780;2023-05-16T09:38:51;19.80;53.80
80540;DHT22;69869;48.036;15.780;2023-05-16T09:41:17;19.70;53.70
80540;DHT22;69869;48.036;15.780;2023-05-16T09:43:44;19.70;53.70
80540;DHT22;69869;48.036;15.780;2023-05-16T09:46:14;19.70;53.70
80540;DHT22;69869;48.036;15.780;2023-05-16T09:48:43;19.80;53.90
80540;DHT22;69869;48.036;15.780;2023-05-16T09:51:11;19.70;53.80
80540;DHT22;69869;48.036;15.780;2023-05-16T09:53:37;19.70;53.70
80540;DHT22;69869;48.036;15.780;2023-05-16T09:56:11;19.70;53.80
80540;DHT22;69869;48.036;15.780;2023-05-16T09:58:38;19.70;53.80
80540;DHT22;69869;48.036;15.780;2023-05-16T10:01:05;19.70;53.80
80540;DHT22;69869;48.036;15.780;2023-05-16T10:03:34;19.70;53.80
80540;DHT22;69869;48.036;15.780;2023-05-16T10:06:00;19.70;53.80
80540;DHT22;69869;48.036;15.780;2023-05-16T10:08:26;19.70;53.80
80540;DHT22;69869;48.036;15.780;2023-05-16T10:10:54;19.70;53.80
80540;DHT22;69869;48.036;15.780;2023-05-16T10:13:22;19.70;53.80
80540;DHT22;69869;48.036;15.780;2023-05-16T10:15:49;19.70;53.80
80540;DHT22;69869;48.036;15.780;2023-05-16T10:18:17;19.70;53.90
80540;DHT22;69869;48.036;15.780;2023-05-16T10:20:45;19.70;53.90
80540;DHT22;69869;48.036;15.780;2023-05-16T10:23:17;19.70;53.90
80540;DHT22;69869;48.036;15.780;2023-05-16T10:25:44;19.70;53.90
80540;DHT22;69869;48.036;15.780;2023-05-16T10:28:11;19.70;53.90
80540;DHT22;69869;48.036;15.780;2023-05-16T10:30:40;19.70;53.90
80540;DHT22;69869;48.036;15.780;2023-05-16T10:33:06;19.70;53.90
80540;DHT22;69869;48.036;15.780;2023-05-16T10:35:33;19.70;53.90
80540;DHT22;69869;48.036;15.780;2023-05-16T10:37:59;19.70;53.90
80540;DHT22;69869;48.036;15.780;2023-05-16T10:40:27;19.70;53.90
80540;DHT22;69869;48.036;15.780;2023-05-16T10:42:56;19.70;53.90
80540;DHT22;69869;48.036;15.780;2023-05-16T10:45:22;19.70;53.90
80540;DHT22;69869;48.036;15.780;2023-05-16T10:47:56;19.70;53.90
80540;DHT22;69869;48.036;15.780;2023-05-16T10:50:44;19.70;53.90
80540;DHT22;69869;48.036;15.780;2023-05-16T10:53:32;19.70;53.90
80540;DHT22;69869;48.036;15.780;2023-05-16T11:01:27;19.60;53.90
80540;DHT22;69869;48.036;15.780;2023-05-16T11:14:08;19.60;54.00
80540;DHT22;69869;48.036;15.780;2023-05-16T11:16:34;19.60;53.90
80540;DHT22;69869;48.036;15.780;2023-05-16T11:19:05;19.60;53.90
80540;DHT22;69869;48.036;15.780;2023-05-16T11:24:36;19.60;53.90
80540;DHT22;69869;48.036;15.780;2023-05-16T11:27:03;19.60;54.00
80540;DHT22;69869;48.036;15.780;2023-05-16T11:29:35;19.60;53.90
80540;DHT22;69869;48.036;15.780;2023-05-16T11:32:04;19.60;53.90
80540;DHT22;69869;48.036;15.780;2023-05-16T11:34:31;19.60;53.90
80540;DHT22;69869;48.036;15.780;2023-05-16T11:36:59;19.60;53.90
80540;DHT22;69869;48.036;15.780;2023-05-16T11:39:26;19.60;53.90
80540;DHT22;69869;48.036;15.780;2023-05-16T11:41:55;19.60;54.00
80540;DHT22;69869;48.036;15.780;2023-05-16T11:44:20;19.60;53.90
80540;DHT22;69869;48.036;15.780;2023-05-16T11:46:46;19.60;54.00
80540;DHT22;69869;48.036;15.780;2023-05-16T11:49:12;19.60;53.90
80540;DHT22;69869;48.036;15.780;2023-05-16T11:51:41;19.60;54.00
80540;DHT22;69869;48.036;15.780;2023-05-16T11:54:11;19.60;53.90
80540;DHT22;69869;48.036;15.780;2023-05-16T11:56:38;19.60;54.00
80540;DHT22;69869;48.036;15.780;2023-05-16T11:59:05;19.60;54.00
80540;DHT22;69869;48.036;15.780;2023-05-16T12:01:35;19.60;54.00
80540;DHT22;69869;48.036;15.780;2023-05-16T12:04:08;19.60;54.00
80540;DHT22;69869;48.036;15.780;2023-05-16T12:06:35;19.60;54.00
80540;DHT22;69869;48.036;15.780;2023-05-16T12:09:01;19.60;54.00
80540;DHT22;69869;48.036;15.780;2023-05-16T12:11:36;19.60;54.00
80540;DHT22;69869;48.036;15.780;2023-05-16T12:14:05;19.60;54.00
80540;DHT22;69869;48.036;15.780;2023-05-16T12:16:32;19.60;54.00
80540;DHT22;69869;48.036;15.780;2023-05-16T12:18:59;19.60;54.00
80540;DHT22;69869;48.036;15.780;2023-05-16T12:21:26;19.60;54.00
80540;DHT22;69869;48.036;15.780;2023-05-16T12:23:55;19.60;54.00
80540;DHT22;69869;48.036;15.780;2023-05-16T12:26:30;19.60;54.00
80540;DHT22;69869;48.036;15.780;2023-05-16T12:28:57;19.60;54.10
80540;DHT22;69869;48.036;15.780;2023-05-16T12:31:25;19.60;54.10
80540;DHT22;69869;48.036;15.780;2023-05-16T12:33:54;19.60;54.10
80540;DHT22;69869;48.036;15.780;2023-05-16T12:36:21;19.60;54.10
80540;DHT22;69869;48.036;15.780;2023-05-16T12:38:47;19.60;54.10
80540;DHT22;69869;48.036;15.780;2023-05-16T12:41:20;19.60;54.10
80540;DHT22;69869;48.036;15.780;2023-05-16T12:43:47;19.60;54.20
80540;DHT22;69869;48.036;15.780;2023-05-16T12:46:13;19.60;54.10
80540;DHT22;69869;48.036;15.780;2023-05-16T12:48:39;19.60;54.10
80540;DHT22;69869;48.036;15.780;2023-05-16T12:51:13;19.60;54.10
80540;DHT22;69869;48.036;15.780;2023-05-16T12:53:47;19.60;54.10
80540;DHT22;69869;48.036;15.780;2023-05-16T12:56:14;19.60;54.10
80540;DHT22;69869;48.036;15.780;2023-05-16T12:58:43;19.60;54.10
80540;DHT22;69869;48.036;15.780;2023-05-16T13:01:08;19.60;54.70
80540;DHT22;69869;48.036;15.780;2023-05-16T13:03:34;19.60;54.10
80540;DHT22;69869;48.036;15.780;2023-05-16T13:06:01;19.60;54.10
80540;DHT22;69869;48.036;15.780;2023-05-16T13:08:28;19.50;54.10
80540;DHT22;69869;48.036;15.780;2023-05-16T13:10:54;19.60;54.20
80540;DHT22;69869;48.036;15.780;2023-05-16T13:13:21;19.60;54.20
80540;DHT22;69869;48.036;15.780;2023-05-16T13:15:47;19.60;54.10
80540;DHT22;69869;48.036;15.780;2023-05-16T13:18:13;19.60;54.10
80540;DHT22;69869;48.036;15.780;2023-05-16T13:20:39;19.50;54.10
80540;DHT22;69869;48.036;15.780;2023-05-16T13:23:05;19.50;54.10
80540;DHT22;69869;48.036;15.780;2023-05-16T13:25:32;19.50;54.10
80540;DHT22;69869;48.036;15.780;2023-05-16T13:27:58;19.50;54.10
80540;DHT22;69869;48.036;15.780;2023-05-16T13:30:23;19.50;54.10
80540;DHT22;69869;48.036;15.780;2023-05-16T13:32:49;19.50;54.10
80540;DHT22;69869;48.036;15.780;2023-05-16T13:35:17;19.60;54.20
80540;DHT22;69869;48.036;15.780;2023-05-16T13:37:43;19.50;54.10
80540;DHT22;69869;48.036;15.780;2023-05-16T13:40:09;19.50;54.10
80540;DHT22;69869;48.036;15.780;2023-05-16T13:42:36;19.50;54.10
80540;DHT22;69869;48.036;15.780;2023-05-16T13:45:02;19.50;54.10
80540;DHT22;69869;48.036;15.780;2023-05-16T13:47:28;19.50;54.20
80540;DHT22;69869;48.036;15.780;2023-05-16T13:49:54;19.50;54.10
80540;DHT22;69869;48.036;15.780;2023-05-16T13:52:20;19.50;54.10
80540;DHT22;69869;48.036;15.780;2023-05-16T13:54:46;19.50;54.10
80540;DHT22;69869;48.036;15.780;2023-05-16T13:57:11;19.50;54.20
80540;DHT22;69869;48.036;15.780;2023-05-16T13:59:37;19.50;54.10
80540;DHT22;69869;48.036;15.780;2023-05-16T14:02:03;19.50;54.20
80540;DHT22;69869;48.036;15.780;2023-05-16T14:04:29;19.50;54.20
80540;DHT22;69869;48.036;15.780;2023-05-16T14:06:55;19.50;54.20
80540;DHT22;69869;48.036;15.780;2023-05-16T14:09:21;19.50;54.20
80540;DHT22;69869;48.036;15.780;2023-05-16T14:11:47;19.50;54.20
80540;DHT22;69869;48.036;15.780;2023-05-16T14:14:12;19.50;54.20
80540;DHT22;69869;48.036;15.780;2023-05-16T14:16:38;19.50;54.20
80540;DHT22;69869;48.036;15.780;2023-05-16T14:19:09;19.50;54.20
80540;DHT22;69869;48.036;15.780;2023-05-16T14:21:35;19.50;54.80
80540;DHT22;69869;48.036;15.780;2023-05-16T14:24:01;19.50;54.20
80540;DHT22;69869;48.036;15.780;2023-05-16T14:26:26;19.50;54.30
80540;DHT22;69869;48.036;15.780;2023-05-16T14:28:52;19.50;54.20
80540;DHT22;69869;48.036;15.780;2023-05-16T14:31:18;19.50;54.20
80540;DHT22;69869;48.036;15.780;2023-05-16T14:33:43;19.50;54.20
80540;DHT22;69869;48.036;15.780;2023-05-16T14:36:09;19.50;54.20
80540;DHT22;69869;48.036;15.780;2023-05-16T14:38:35;19.50;54.30
80540;DHT22;69869;48.036;15.780;2023-05-16T14:41:01;19.50;54.30
80540;DHT22;69869;48.036;15.780;2023-05-16T14:43:27;19.50;54.20
80540;DHT22;69869;48.036;15.780;2023-05-16T14:45:53;19.50;54.30
80540;DHT22;69869;48.036;15.780;2023-05-16T14:48:18;19.50;54.20
80540;DHT22;69869;48.036;15.780;2023-05-16T14:50:44;19.50;54.30
80540;DHT22;69869;48.036;15.780;2023-05-16T14:53:10;19.50;54.30
80540;DHT22;69869;48.036;15.780;2023-05-16T14:55:36;19.40;54.20
80540;DHT22;69869;48.036;15.780;2023-05-16T14:58:02;19.50;54.30
80540;DHT22;69869;48.036;15.780;2023-05-16T15:00:28;19.50;54.30
80540;DHT22;69869;48.036;15.780;2023-05-16T15:02:54;19.50;54.30
80540;DHT22;69869;48.036;15.780;2023-05-16T15:05:19;19.40;54.20
80540;DHT22;69869;48.036;15.780;2023-05-16T15:07:45;19.50;54.30
80540;DHT22;69869;48.036;15.780;2023-05-16T15:10:11;19.40;54.20
80540;DHT22;69869;48.036;15.780;2023-05-16T15:12:36;19.50;54.30
80540;DHT22;69869;48.036;15.780;2023-05-16T15:15:06;19.40;54.20
80540;DHT22;69869;48.036;15.780;2023-05-16T15:17:31;19.40;54.30
80540;DHT22;69869;48.036;15.780;2023-05-16T15:19:57;19.40;54.20
80540;DHT22;69869;48.036;15.780;2023-05-16T15:22:25;19.40;54.30
80540;DHT22;69869;48.036;15.780;2023-05-16T15:24:50;19.40;54.30
80540;DHT22;69869;48.036;15.780;2023-05-16T15:27:16;19.40;54.30
80540;DHT22;69869;48.036;15.780;2023-05-16T15:29:42;19.40;54.30
80540;DHT22;69869;48.036;15.780;2023-05-16T15:32:08;19.40;54.30
80540;DHT22;69869;48.036;15.780;2023-05-16T15:34:34;19.40;54.30
80540;DHT22;69869;48.036;15.780;2023-05-16T15:37:00;19.40;54.30
80540;DHT22;69869;48.036;15.780;2023-05-16T15:39:26;19.40;54.30
80540;DHT22;69869;48.036;15.780;2023-05-16T15:41:52;19.40;54.30